Time;durP1;ratioP1;P1;durP2;ratioP2;P2;SDS_P1;SDS_P2;PMS_P1;PMS_P2;Temp;Humidity;BMP_temperature;BMP_pressure;BME280_temperature;BME280_humidity;BME280_pressure;Samples;Min_cycle;Max_cycle;Signal;HPM_P1;HPM_P2
2021/12/27 00:00:31;;;;;;;;;;;0.30;99.90;;;;;;4908589;29;20294;-79
2021/12/27 00:02:58;;;;;;;;;;;0.30;99.90;;;;;;4913595;29;19923;-78
2021/12/27 00:05:23;;;;;;;;;;;0.30;99.90;;;;;;4908399;29;20286;-79
2021/12/27 00:07:50;;;;;;;;;;;0.30;99.90;;;;;;4909435;29;19927;-80
2021/12/27 00:10:17;;;;;;;;;;;0.30;99.90;;;;;;4910915;29;19929;-79
2021/12/27 00:12:42;;;;;;;;;;;0.30;99.90;;;;;;4925332;29;20295;-79
2021/12/27 00:15:09;;;;;;;;;;;0.40;99.90;;;;;;4911346;29;19927;-78
2021/12/27 00:17:34;;;;;;;;;;;-0.40;99.90;;;;;;4929044;29;19931;-78
2021/12/27 00:20:00;;;;;;;;;;;0.30;99.90;;;;;;4905534;29;19935;-78
2021/12/27 00:22:25;;;;;;;;;;;0.40;99.90;;;;;;4927309;29;19939;-77
2021/12/27 00:24:51;;;;;;;;;;;0.30;99.90;;;;;;4909099;29;20395;-78
2021/12/27 00:27:17;;;;;;;;;;;0.30;99.90;;;;;;4921356;29;20017;-78
2021/12/27 00:29:42;;;;;;;;;;;0.30;99.90;;;;;;4926378;29;20284;-80
2021/12/27 00:32:08;;;;;;;;;;;0.30;99.90;;;;;;4909537;29;20013;-79
2021/12/27 00:34:36;;;;;;;;;;;0.30;99.90;;;;;;4907411;29;19978;-79
2021/12/27 00:37:05;;;;;;;;;;;0.20;99.90;;;;;;4911298;29;19962;-80
2021/12/27 00:39:31;;;;;;;;;;;0.30;99.90;;;;;;4906729;29;19931;-80
2021/12/27 00:41:57;;;;;;;;;;;0.30;99.90;;;;;;4909773;29;19923;-80
2021/12/27 00:44:22;;;;;;;;;;;0.30;99.90;;;;;;4909084;29;19923;-80
2021/12/27 00:46:48;;;;;;;;;;;0.20;99.90;;;;;;4909692;29;19982;-79
2021/12/27 00:49:13;;;;;;;;;;;0.30;99.90;;;;;;4905717;29;19974;-79
2021/12/27 00:51:39;;;;;;;;;;;0.30;99.90;;;;;;4922577;29;19930;-79
2021/12/27 00:54:04;;;;;;;;;;;0.20;99.90;;;;;;4906095;29;19923;-79
2021/12/27 00:56:30;;;;;;;;;;;0.30;99.90;;;;;;4924813;29;19922;-79
2021/12/27 00:58:58;;;;;;;;;;;0.30;99.90;;;;;;4921118;29;20294;-80
2021/12/27 01:01:24;;;;;;;;;;;0.20;99.90;;;;;;4906622;29;19923;-79
2021/12/27 01:03:49;;;;;;;;;;;0.30;99.90;;;;;;4907392;29;19927;-79
2021/12/27 01:06:15;;;;;;;;;;;0.50;99.90;;;;;;4921531;29;20002;-79
2021/12/27 01:08:40;;;;;;;;;;;0.10;99.90;;;;;;4905831;29;19922;-80
2021/12/27 01:11:24;;;;;;;;;;;0.40;99.90;;;;;;4907349;29;20017;-79
2021/12/27 01:14:12;;;;;;;;;;;0.40;99.90;;;;;;4908803;29;19930;-79
2021/12/27 01:16:38;;;;;;;;;;;0.40;99.90;;;;;;4904544;29;19927;-79
2021/12/27 01:19:05;;;;;;;;;;;0.40;99.90;;;;;;4905029;29;19978;-79
2021/12/27 01:21:30;;;;;;;;;;;0.40;99.90;;;;;;4904780;29;19922;-79
2021/12/27 01:23:56;;;;;;;;;;;0.40;99.90;;;;;;4921572;29;20382;-79
2021/12/27 01:26:22;;;;;;;;;;;0.40;99.90;;;;;;4925340;29;19925;-79
2021/12/27 01:28:47;;;;;;;;;;;0.40;99.90;;;;;;4922101;29;19923;-79
2021/12/27 01:31:13;;;;;;;;;;;0.50;99.90;;;;;;4906860;29;19923;-80
2021/12/27 01:33:39;;;;;;;;;;;0.40;99.90;;;;;;4924856;29;20302;-80
2021/12/27 01:36:05;;;;;;;;;;;0.40;99.90;;;;;;4911198;29;19978;-79
2021/12/27 01:38:31;;;;;;;;;;;0.60;99.90;;;;;;4905482;29;19919;-79
2021/12/27 01:40:57;;;;;;;;;;;0.50;99.90;;;;;;4908388;29;19929;-79
2021/12/27 01:43:22;;;;;;;;;;;0.50;99.90;;;;;;4904578;29;19940;-80
2021/12/27 01:45:58;;;;;;;;;;;0.50;99.90;;;;;;4921549;29;20315;-79
2021/12/27 01:48:25;;;;;;;;;;;0.40;99.90;;;;;;4905125;29;20383;-80
2021/12/27 01:50:52;;;;;;;;;;;0.40;99.90;;;;;;4906050;29;19941;-79
2021/12/27 01:53:18;;;;;;;;;;;0.40;99.90;;;;;;4905678;29;20033;-79
2021/12/27 01:55:45;;;;;;;;;;;0.40;99.90;;;;;;4910875;29;19981;-80
2021/12/27 01:58:10;;;;;;;;;;;0.40;99.90;;;;;;4908355;29;19923;-79
2021/12/27 02:00:37;;;;;;;;;;;0.40;99.90;;;;;;4925595;29;20025;-79
2021/12/27 02:03:03;;;;;;;;;;;0.40;99.90;;;;;;4925402;29;20018;-80
2021/12/27 02:05:30;;;;;;;;;;;0.40;99.90;;;;;;4908406;29;19934;-80
2021/12/27 02:07:58;;;;;;;;;;;0.40;99.90;;;;;;4910672;29;20385;-79
2021/12/27 02:10:24;;;;;;;;;;;0.40;99.90;;;;;;4907118;29;19923;-80
2021/12/27 02:12:50;;;;;;;;;;;0.40;99.90;;;;;;4906487;29;19934;-80
2021/12/27 02:15:15;;;;;;;;;;;0.40;99.90;;;;;;4926664;29;20318;-80
2021/12/27 02:17:42;;;;;;;;;;;0.40;99.90;;;;;;4924088;29;19923;-80
2021/12/27 02:20:16;;;;;;;;;;;0.40;99.90;;;;;;4908794;29;19923;-79
2021/12/27 02:22:43;;;;;;;;;;;0.40;99.90;;;;;;4920958;29;19927;-80
2021/12/27 02:25:09;;;;;;;;;;;0.50;99.90;;;;;;4925977;29;20611;-78
2021/12/27 02:27:34;;;;;;;;;;;0.60;99.90;;;;;;4910102;29;19930;-78
2021/12/27 02:30:00;;;;;;;;;;;0.60;99.90;;;;;;4925334;29;19923;-80
2021/12/27 02:32:26;;;;;;;;;;;0.50;99.90;;;;;;4908702;29;19923;-80
2021/12/27 02:34:51;;;;;;;;;;;0.50;99.90;;;;;;4906762;29;20407;-80
2021/12/27 02:37:17;;;;;;;;;;;0.40;99.90;;;;;;4909588;29;19934;-81
2021/12/27 02:39:44;;;;;;;;;;;0.40;99.90;;;;;;4924787;29;19923;-80
2021/12/27 02:42:14;;;;;;;;;;;0.60;99.90;;;;;;4912374;29;19923;-80
2021/12/27 02:44:40;;;;;;;;;;;0.40;99.90;;;;;;4912727;29;19927;-78
2021/12/27 02:47:05;;;;;;;;;;;0.40;99.90;;;;;;4909837;29;20375;-79
2021/12/27 02:49:31;;;;;;;;;;;0.50;99.90;;;;;;4926654;29;19923;-79
2021/12/27 02:51:56;;;;;;;;;;;0.40;99.90;;;;;;4912259;29;20290;-79
2021/12/27 02:54:22;;;;;;;;;;;0.50;99.90;;;;;;4927085;29;19933;-80
2021/12/27 02:56:48;;;;;;;;;;;0.50;99.90;;;;;;4910489;29;19923;-80
2021/12/27 02:59:13;;;;;;;;;;;0.50;99.90;;;;;;4930399;29;20386;-80
2021/12/27 03:01:39;;;;;;;;;;;0.50;99.90;;;;;;4908916;29;19923;-81
2021/12/27 03:04:04;;;;;;;;;;;0.50;99.90;;;;;;4928856;29;19923;-80
2021/12/27 03:06:29;;;;;;;;;;;0.50;99.90;;;;;;4909978;29;19960;-80
2021/12/27 03:08:55;;;;;;;;;;;0.40;99.90;;;;;;4912403;29;19973;-81
2021/12/27 03:11:21;;;;;;;;;;;0.50;99.90;;;;;;4914313;29;19946;-81
2021/12/27 03:13:48;;;;;;;;;;;0.50;99.90;;;;;;4910357;29;19922;-79
2021/12/27 03:16:15;;;;;;;;;;;0.40;99.90;;;;;;4928706;29;19930;-79
2021/12/27 03:18:46;;;;;;;;;;;0.50;99.90;;;;;;4909610;29;19923;-79
2021/12/27 03:21:11;;;;;;;;;;;0.50;99.90;;;;;;4912282;29;19967;-79
2021/12/27 03:23:38;;;;;;;;;;;0.40;99.90;;;;;;4926286;29;19995;-79
2021/12/27 03:26:04;;;;;;;;;;;0.50;99.90;;;;;;4909457;29;19922;-80
2021/12/27 03:28:29;;;;;;;;;;;0.40;99.90;;;;;;4909281;29;19978;-80
2021/12/27 03:30:57;;;;;;;;;;;0.50;99.90;;;;;;4911433;29;19923;-80
2021/12/27 03:33:23;;;;;;;;;;;0.50;99.90;;;;;;4910223;29;19922;-79
2021/12/27 03:36:01;;;;;;;;;;;0.50;99.90;;;;;;4927934;29;19978;-80
2021/12/27 03:38:28;;;;;;;;;;;0.50;99.90;;;;;;4926255;29;19930;-80
2021/12/27 03:40:53;;;;;;;;;;;0.50;99.90;;;;;;4929589;29;19933;-80
2021/12/27 03:43:19;;;;;;;;;;;0.50;99.90;;;;;;4927427;29;19923;-80
2021/12/27 03:45:44;;;;;;;;;;;0.50;99.90;;;;;;4927758;29;20334;-80
2021/12/27 03:48:10;;;;;;;;;;;0.60;99.90;;;;;;4909563;29;20018;-80
2021/12/27 03:50:36;;;;;;;;;;;0.60;99.90;;;;;;4927911;29;19923;-80
2021/12/27 03:53:02;;;;;;;;;;;0.60;99.90;;;;;;4908643;29;19974;-80
2021/12/27 03:55:28;;;;;;;;;;;0.60;99.90;;;;;;4931790;29;19926;-80
2021/12/27 03:57:56;;;;;;;;;;;0.70;99.90;;;;;;4926003;29;19937;-80
2021/12/27 04:02:50;;;;;;;;;;;0.70;99.90;;;;;;4926905;29;19926;-81
2021/12/27 04:05:16;;;;;;;;;;;0.70;99.90;;;;;;4930177;29;19930;-81
2021/12/27 04:07:46;;;;;;;;;;;0.70;99.90;;;;;;4910091;29;19923;-81
2021/12/27 04:10:12;;;;;;;;;;;0.50;99.90;;;;;;4909679;29;19930;-80
2021/12/27 04:12:38;;;;;;;;;;;0.80;99.90;;;;;;4927279;29;19926;-80
2021/12/27 04:15:05;;;;;;;;;;;0.80;99.90;;;;;;4908810;29;19922;-79
2021/12/27 04:17:31;;;;;;;;;;;0.80;99.90;;;;;;4911498;29;20394;-80
2021/12/27 04:19:56;;;;;;;;;;;0.70;99.90;;;;;;4925418;29;19919;-79
2021/12/27 04:22:25;;;;;;;;;;;0.70;99.90;;;;;;4914859;29;19929;-80
2021/12/27 04:24:51;;;;;;;;;;;0.60;99.90;;;;;;4908813;29;19978;-81
2021/12/27 04:27:16;;;;;;;;;;;0.60;99.90;;;;;;4925089;29;19977;-80
2021/12/27 04:29:42;;;;;;;;;;;0.60;99.90;;;;;;4910021;29;19923;-80
2021/12/27 04:32:08;;;;;;;;;;;0.60;99.90;;;;;;4909627;29;19923;-80
2021/12/27 04:34:33;;;;;;;;;;;0.50;99.90;;;;;;4908319;29;19927;-80
2021/12/27 04:36:59;;;;;;;;;;;0.50;99.90;;;;;;4927923;29;19978;-81
2021/12/27 04:39:26;;;;;;;;;;;0.50;99.90;;;;;;4907944;29;19934;-81
2021/12/27 04:41:52;;;;;;;;;;;0.50;99.90;;;;;;4907663;29;20002;-81
2021/12/27 04:44:17;;;;;;;;;;;0.50;99.90;;;;;;4907357;29;19927;-81
2021/12/27 04:46:43;;;;;;;;;;;0.50;99.90;;;;;;4926799;29;20308;-80
2021/12/27 04:49:09;;;;;;;;;;;0.50;99.90;;;;;;4910693;29;19930;-80
2021/12/27 04:51:34;;;;;;;;;;;0.60;99.90;;;;;;4909775;29;19926;-80
2021/12/27 04:54:00;;;;;;;;;;;0.50;99.90;;;;;;4910209;29;20260;-80
2021/12/27 04:56:25;;;;;;;;;;;0.50;99.90;;;;;;4909562;29;20009;-80
2021/12/27 04:58:54;;;;;;;;;;;0.50;99.90;;;;;;4907631;29;19923;-80
2021/12/27 05:01:19;;;;;;;;;;;0.50;99.90;;;;;;4924040;29;20311;-80
2021/12/27 05:03:47;;;;;;;;;;;0.50;99.90;;;;;;4927553;29;19927;-80
2021/12/27 05:06:13;;;;;;;;;;;0.40;99.90;;;;;;4910089;29;19922;-80
2021/12/27 05:08:42;;;;;;;;;;;0.50;99.90;;;;;;4924971;29;20378;-80
2021/12/27 05:11:08;;;;;;;;;;;0.40;99.90;;;;;;4908226;29;19927;-80
2021/12/27 05:13:34;;;;;;;;;;;0.40;99.90;;;;;;4909002;29;19923;-80
2021/12/27 05:16:00;;;;;;;;;;;0.40;99.90;;;;;;4908619;29;19923;-80
2021/12/27 05:18:26;;;;;;;;;;;0.40;99.90;;;;;;4908118;29;19969;-81
2021/12/27 05:20:52;;;;;;;;;;;0.40;99.90;;;;;;4907580;29;20017;-81
2021/12/27 05:23:18;;;;;;;;;;;0.40;99.90;;;;;;4908260;29;19937;-81
2021/12/27 05:25:43;;;;;;;;;;;0.50;99.90;;;;;;4906406;29;20046;-80
2021/12/27 05:28:09;;;;;;;;;;;0.50;99.90;;;;;;4912953;29;19931;-80
2021/12/27 05:30:35;;;;;;;;;;;0.50;99.90;;;;;;4907969;29;19922;-80
2021/12/27 05:33:01;;;;;;;;;;;1.40;99.90;;;;;;4909686;29;19923;-80
2021/12/27 05:35:26;;;;;;;;;;;0.50;99.90;;;;;;4927618;29;19923;-82
2021/12/27 05:37:52;;;;;;;;;;;0.50;99.90;;;;;;4907136;29;19934;-82
2021/12/27 05:40:19;;;;;;;;;;;0.50;99.90;;;;;;4906253;29;20390;-82
2021/12/27 05:42:44;;;;;;;;;;;0.60;99.90;;;;;;4908182;29;19938;-81
2021/12/27 05:45:10;;;;;;;;;;;0.60;99.90;;;;;;4906834;29;19923;-87
2021/12/27 05:47:35;;;;;;;;;;;0.60;99.90;;;;;;4909527;29;19927;-85
2021/12/27 05:50:02;;;;;;;;;;;0.60;99.90;;;;;;4905488;29;19923;-85
2021/12/27 05:52:27;;;;;;;;;;;0.60;99.90;;;;;;4908431;29;19993;-84
2021/12/27 05:54:53;;;;;;;;;;;0.60;99.90;;;;;;4910261;29;20394;-87
2021/12/27 05:57:19;;;;;;;;;;;0.60;99.90;;;;;;4909207;29;19926;-82
2021/12/27 05:59:45;;;;;;;;;;;0.60;99.90;;;;;;4904476;29;19926;-82
2021/12/27 06:02:10;;;;;;;;;;;0.70;99.90;;;;;;4909574;29;19923;-82
2021/12/27 06:04:36;;;;;;;;;;;0.70;99.90;;;;;;4923395;29;19927;-82
2021/12/27 06:07:02;;;;;;;;;;;0.80;99.90;;;;;;4927691;29;19938;-83
2021/12/27 06:09:27;;;;;;;;;;;0.80;99.90;;;;;;4908787;29;19939;-82
2021/12/27 06:11:53;;;;;;;;;;;0.70;99.90;;;;;;4904643;29;19923;-81
2021/12/27 06:14:18;;;;;;;;;;;0.80;99.90;;;;;;4902899;29;20337;-83
2021/12/27 06:16:44;;;;;;;;;;;0.80;99.90;;;;;;4914163;29;20294;-81
2021/12/27 06:19:09;;;;;;;;;;;0.80;99.90;;;;;;4966892;23;19926;-79
2021/12/27 06:21:36;;;;;;;;;;;0.80;99.90;;;;;;4921717;29;19923;-79
2021/12/27 06:24:02;;;;;;;;;;;0.80;99.90;;;;;;5130053;23;20277;-79
2021/12/27 06:26:27;;;;;;;;;;;0.70;99.90;;;;;;4935426;29;19926;-79
2021/12/27 06:28:53;;;;;;;;;;;0.80;99.90;;;;;;4921070;29;19946;-79
2021/12/27 06:31:19;;;;;;;;;;;0.80;99.90;;;;;;4920627;29;20567;-79
2021/12/27 06:33:48;;;;;;;;;;;0.80;99.90;;;;;;4918041;29;19933;-79
2021/12/27 06:36:14;;;;;;;;;;;0.80;99.90;;;;;;4918817;29;19962;-79
2021/12/27 06:38:40;;;;;;;;;;;0.80;99.90;;;;;;4919615;29;20523;-79
2021/12/27 06:41:08;;;;;;;;;;;0.80;99.90;;;;;;4918734;29;19926;-79
2021/12/27 06:43:33;;;;;;;;;;;0.80;99.90;;;;;;4919707;29;19923;-79
2021/12/27 06:45:59;;;;;;;;;;;0.80;99.90;;;;;;4920191;29;19970;-79
2021/12/27 06:48:25;;;;;;;;;;;0.90;99.90;;;;;;4936529;29;19942;-79
2021/12/27 06:50:54;;;;;;;;;;;0.90;99.90;;;;;;4920690;29;20176;-79
2021/12/27 06:53:30;;;;;;;;;;;0.90;99.90;;;;;;4936257;29;20294;-79
2021/12/27 06:55:56;;;;;;;;;;;0.90;99.90;;;;;;4920057;29;19929;-79
2021/12/27 06:58:22;;;;;;;;;;;2.10;99.90;;;;;;4937627;29;19934;-79
2021/12/27 07:00:47;;;;;;;;;;;0.90;99.90;;;;;;4936417;29;19925;-79
2021/12/27 07:05:54;;;;;;;;;;;0.90;99.90;;;;;;5115664;23;19978;-79
2021/12/27 07:08:22;;;;;;;;;;;1.00;99.90;;;;;;5322411;23;19931;-79
2021/12/27 07:10:48;;;;;;;;;;;0.90;99.90;;;;;;4920466;29;19950;-79
2021/12/27 07:13:13;;;;;;;;;;;0.90;99.90;;;;;;4920301;29;19927;-78
2021/12/27 07:15:41;;;;;;;;;;;0.90;99.90;;;;;;4920033;29;20378;-78
2021/12/27 07:18:16;;;;;;;;;;;0.90;99.90;;;;;;4936886;29;19922;-79
2021/12/27 07:20:42;;;;;;;;;;;0.90;99.90;;;;;;4920464;29;19919;-78
2021/12/27 07:23:10;;;;;;;;;;;0.90;99.90;;;;;;4919959;29;19990;-79
2021/12/27 07:25:35;;;;;;;;;;;0.90;99.90;;;;;;4936440;29;19923;-79
2021/12/27 07:28:01;;;;;;;;;;;0.90;99.90;;;;;;4936878;29;19919;-78
2021/12/27 07:30:28;;;;;;;;;;;0.90;99.90;;;;;;4914962;29;20001;-78
2021/12/27 07:32:54;;;;;;;;;;;0.80;99.90;;;;;;4919681;29;19919;-79
2021/12/27 07:35:20;;;;;;;;;;;0.80;99.90;;;;;;4920761;29;19923;-79
2021/12/27 07:37:46;;;;;;;;;;;0.80;99.90;;;;;;4920478;29;19970;-78
2021/12/27 07:43:39;;;;;;;;;;;0.60;99.90;;;;;;4927649;29;19918;-78
2021/12/27 07:46:14;;;;;;;;;;;0.80;99.90;;;;;;4910637;29;19930;-78
2021/12/27 07:48:39;;;;;;;;;;;0.70;99.90;;;;;;4912489;29;20333;-81
2021/12/27 07:51:05;;;;;;;;;;;0.90;99.90;;;;;;4909935;29;20014;-81
2021/12/27 07:53:30;;;;;;;;;;;0.90;99.90;;;;;;4911775;29;19927;-80
2021/12/27 07:55:56;;;;;;;;;;;1.00;99.90;;;;;;4911483;29;19929;-81
2021/12/27 07:58:21;;;;;;;;;;;1.00;99.90;;;;;;4907927;29;20299;-80
2021/12/27 08:00:50;;;;;;;;;;;1.10;99.90;;;;;;4908612;29;19930;-80
2021/12/27 08:03:17;;;;;;;;;;;1.10;99.90;;;;;;4910548;29;19922;-80
2021/12/27 08:05:42;;;;;;;;;;;1.00;99.90;;;;;;4909458;29;19931;-80
2021/12/27 08:08:08;;;;;;;;;;;1.10;99.90;;;;;;4911861;29;19922;-80
2021/12/27 08:10:34;;;;;;;;;;;1.00;99.90;;;;;;4913261;29;20393;-77
2021/12/27 08:13:01;;;;;;;;;;;1.00;99.90;;;;;;4925744;29;20363;-76
2021/12/27 08:15:26;;;;;;;;;;;1.10;99.90;;;;;;4924505;29;19923;-76
2021/12/27 08:17:52;;;;;;;;;;;1.10;99.90;;;;;;4924960;29;19930;-82
2021/12/27 08:20:17;;;;;;;;;;;1.10;99.90;;;;;;4912243;29;20013;-76
2021/12/27 08:22:43;;;;;;;;;;;1.00;99.90;;;;;;4927599;29;19922;-81
2021/12/27 08:25:09;;;;;;;;;;;1.00;99.90;;;;;;4908005;29;20284;-76
2021/12/27 08:27:37;;;;;;;;;;;1.00;99.90;;;;;;4909900;29;19962;-79
2021/12/27 08:30:05;;;;;;;;;;;1.00;99.90;;;;;;4906604;29;19923;-81
2021/12/27 08:32:31;;;;;;;;;;;1.00;99.90;;;;;;4910405;29;19927;-88
2021/12/27 08:35:02;;;;;;;;;;;1.10;99.90;;;;;;4927226;29;19923;-82
2021/12/27 08:37:29;;;;;;;;;;;2.10;99.90;;;;;;4908519;29;20433;-96
2021/12/27 08:39:54;;;;;;;;;;;1.20;99.90;;;;;;4909157;29;19926;-84
2021/12/27 08:42:20;;;;;;;;;;;1.20;99.90;;;;;;4930428;29;19926;-79
2021/12/27 08:44:48;;;;;;;;;;;1.20;99.90;;;;;;4925642;29;20061;-77
2021/12/27 08:47:15;;;;;;;;;;;1.10;99.90;;;;;;4908698;29;20335;-80
2021/12/27 08:49:41;;;;;;;;;;;1.10;99.90;;;;;;4913629;29;19930;-88
2021/12/27 08:52:07;;;;;;;;;;;1.10;99.90;;;;;;4923115;29;20475;-79
2021/12/27 08:54:32;;;;;;;;;;;1.20;99.90;;;;;;4905965;29;19957;-79
2021/12/27 08:56:58;;;;;;;;;;;1.10;99.90;;;;;;4923931;29;20017;-80
2021/12/27 08:59:23;;;;;;;;;;;1.10;99.90;;;;;;4907556;29;19929;-80
2021/12/27 09:01:49;;;;;;;;;;;1.20;99.90;;;;;;4909708;29;19930;-81
2021/12/27 09:04:14;;;;;;;;;;;1.20;99.90;;;;;;4910246;29;20379;-84
2021/12/27 09:06:40;;;;;;;;;;;1.20;99.90;;;;;;4906830;29;19927;-82
2021/12/27 09:09:05;;;;;;;;;;;1.20;99.90;;;;;;4909285;29;20326;-84
2021/12/27 09:11:31;;;;;;;;;;;1.20;99.90;;;;;;4908290;29;19931;-80
2021/12/27 09:13:59;;;;;;;;;;;1.30;99.90;;;;;;4910121;29;19923;-81
2021/12/27 09:16:27;;;;;;;;;;;1.30;99.90;;;;;;4925030;29;20680;-81
2021/12/27 09:18:53;;;;;;;;;;;1.30;99.90;;;;;;4910778;29;19969;-80
2021/12/27 09:21:18;;;;;;;;;;;1.30;99.90;;;;;;4907721;29;19961;-81
2021/12/27 09:23:46;;;;;;;;;;;1.40;99.90;;;;;;4926726;29;19977;-79
2021/12/27 09:26:12;;;;;;;;;;;1.30;99.90;;;;;;4908242;29;20028;-82
2021/12/27 09:28:37;;;;;;;;;;;1.40;99.90;;;;;;4909580;29;19923;-79
2021/12/27 09:31:03;;;;;;;;;;;1.40;99.90;;;;;;4925377;29;20291;-86
2021/12/27 09:33:28;;;;;;;;;;;1.40;99.90;;;;;;4909745;29;19974;-76
2021/12/27 09:35:54;;;;;;;;;;;1.40;99.90;;;;;;4906177;29;20639;-78
2021/12/27 09:38:19;;;;;;;;;;;1.40;99.90;;;;;;4903318;29;19970;-78
2021/12/27 09:40:45;;;;;;;;;;;1.40;99.90;;;;;;4904256;29;20446;-81
2021/12/27 09:43:11;;;;;;;;;;;1.40;99.90;;;;;;4906437;29;20017;-80
2021/12/27 09:45:37;;;;;;;;;;;1.60;99.90;;;;;;4904080;29;19928;-80
2021/12/27 09:48:02;;;;;;;;;;;1.50;99.90;;;;;;4927458;29;19923;-80
2021/12/27 09:50:37;;;;;;;;;;;1.60;99.90;;;;;;4903296;29;20006;-82
2021/12/27 09:53:03;;;;;;;;;;;1.50;99.90;;;;;;4907735;29;19969;-82
2021/12/27 09:55:28;;;;;;;;;;;1.60;99.90;;;;;;4906008;29;19970;-84
2021/12/27 09:57:54;;;;;;;;;;;1.60;99.90;;;;;;4928881;29;20026;-82
2021/12/27 10:00:20;;;;;;;;;;;1.60;99.90;;;;;;4927359;29;19919;-82
2021/12/27 10:02:48;;;;;;;;;;;1.60;99.90;;;;;;4911644;29;19923;-79
2021/12/27 10:05:20;;;;;;;;;;;1.60;99.90;;;;;;4906959;29;19923;-80
2021/12/27 10:07:46;;;;;;;;;;;1.70;99.90;;;;;;4908606;29;19961;-79
2021/12/27 10:10:11;;;;;;;;;;;1.70;99.90;;;;;;4909975;29;19962;-80
2021/12/27 10:12:37;;;;;;;;;;;1.70;99.90;;;;;;4904110;29;20323;-87
2021/12/27 10:15:04;;;;;;;;;;;1.80;99.90;;;;;;4912067;29;19922;-82
2021/12/27 10:17:31;;;;;;;;;;;1.90;99.90;;;;;;4909042;29;19991;-85
2021/12/27 10:20:07;;;;;;;;;;;1.90;99.90;;;;;;4928892;29;19930;-84
2021/12/27 10:22:54;;;;;;;;;;;1.90;99.90;;;;;;4906085;29;19973;-80
2021/12/27 10:25:24;;;;;;;;;;;2.00;99.90;;;;;;4907028;29;19941;-84
2021/12/27 10:27:52;;;;;;;;;;;2.00;99.90;;;;;;4909748;29;19989;-80
2021/12/27 10:30:19;;;;;;;;;;;2.10;99.90;;;;;;4925480;29;20006;-81
2021/12/27 10:33:01;;;;;;;;;;;2.10;99.90;;;;;;4907941;29;19935;-82
2021/12/27 10:35:33;;;;;;;;;;;2.10;99.90;;;;;;4908698;29;20380;-80
2021/12/27 10:38:10;;;;;;;;;;;2.20;99.90;;;;;;4909764;29;20383;-80
2021/12/27 10:40:36;;;;;;;;;;;2.20;99.90;;;;;;4907998;29;19923;-85
2021/12/27 10:43:01;;;;;;;;;;;2.30;99.90;;;;;;4910593;29;20264;-78
2021/12/27 10:45:27;;;;;;;;;;;2.30;99.90;;;;;;4922103;29;19919;-78
2021/12/27 10:47:57;;;;;;;;;;;2.30;99.90;;;;;;4909734;29;19923;-79
2021/12/27 10:50:25;;;;;;;;;;;2.30;99.90;;;;;;4906093;29;19973;-78
2021/12/27 10:53:03;;;;;;;;;;;2.30;99.90;;;;;;4901632;29;19923;-78
2021/12/27 10:55:32;;;;;;;;;;;2.50;99.90;;;;;;4898145;29;19933;-79
2021/12/27 10:58:12;;;;;;;;;;;2.60;99.90;;;;;;4899555;29;19923;-78
2021/12/27 11:00:39;;;;;;;;;;;2.60;99.90;;;;;;4923680;29;19930;-81
2021/12/27 11:03:04;;;;;;;;;;;2.70;99.90;;;;;;4909062;29;19974;-80
2021/12/27 11:05:32;;;;;;;;;;;2.80;99.90;;;;;;4912873;29;19954;-83
2021/12/27 11:08:00;;;;;;;;;;;2.80;99.90;;;;;;4911915;29;19922;-84
2021/12/27 11:10:27;;;;;;;;;;;2.70;99.90;;;;;;4911780;29;19986;-90
2021/12/27 11:12:59;;;;;;;;;;;2.80;99.90;;;;;;4913112;29;20351;-82
2021/12/27 11:15:25;;;;;;;;;;;2.80;99.90;;;;;;4910194;29;19923;-83
2021/12/27 11:17:51;;;;;;;;;;;2.80;99.90;;;;;;4929830;29;19926;-82
2021/12/27 11:20:16;;;;;;;;;;;2.80;99.90;;;;;;4909335;29;20375;-84
2021/12/27 11:22:43;;;;;;;;;;;2.80;99.90;;;;;;4928692;29;20362;-83
2021/12/27 11:25:19;;;;;;;;;;;2.80;99.90;;;;;;4927618;29;20390;-83
2021/12/27 11:27:45;;;;;;;;;;;2.80;99.90;;;;;;4911739;29;19919;-88
2021/12/27 11:30:12;;;;;;;;;;;2.70;99.90;;;;;;4906427;29;19974;-78
2021/12/27 11:32:56;;;;;;;;;;;2.70;99.90;;;;;;4908641;29;19927;-78
2021/12/27 11:35:22;;;;;;;;;;;2.70;99.90;;;;;;4926214;29;19931;-75
2021/12/27 11:37:48;;;;;;;;;;;2.70;99.90;;;;;;4911744;29;19930;-76
2021/12/27 11:40:14;;;;;;;;;;;2.80;99.90;;;;;;4900464;29;19959;-81
2021/12/27 11:42:52;;;;;;;;;;;2.80;99.90;;;;;;4914075;29;20012;-79
2021/12/27 11:45:35;;;;;;;;;;;2.90;99.90;;;;;;4912696;29;19919;-79
2021/12/27 11:48:12;;;;;;;;;;;2.90;99.90;;;;;;4899098;29;19931;-80
2021/12/27 11:50:56;;;;;;;;;;;3.00;99.90;;;;;;4931295;29;20417;-81
2021/12/27 11:53:44;;;;;;;;;;;3.00;99.90;;;;;;4912862;29;19949;-81
2021/12/27 11:56:11;;;;;;;;;;;3.00;99.90;;;;;;4918438;29;19922;-82
2021/12/27 11:58:43;;;;;;;;;;;3.10;99.90;;;;;;4899640;29;20014;-78
2021/12/27 12:01:20;;;;;;;;;;;3.10;99.90;;;;;;4905567;29;19931;-80
2021/12/27 12:03:46;;;;;;;;;;;3.10;99.90;;;;;;4907359;29;19930;-84
2021/12/27 12:06:31;;;;;;;;;;;3.00;99.90;;;;;;4894299;29;20280;-81
2021/12/27 12:08:56;;;;;;;;;;;3.10;99.90;;;;;;4914430;29;19923;-82
2021/12/27 12:11:30;;;;;;;;;;;3.10;99.90;;;;;;4921117;29;19933;-80
2021/12/27 12:13:55;;;;;;;;;;;3.10;99.90;;;;;;4914496;29;19923;-80
2021/12/27 12:16:23;;;;;;;;;;;3.10;99.90;;;;;;4896339;29;19935;-86
2021/12/27 12:18:57;;;;;;;;;;;3.10;99.90;;;;;;4898977;29;20010;-82
2021/12/27 12:21:29;;;;;;;;;;;3.00;99.90;;;;;;4906555;29;19924;-80
2021/12/27 12:24:15;;;;;;;;;;;3.00;99.90;;;;;;4891038;29;19955;-82
2021/12/27 12:26:58;;;;;;;;;;;3.10;99.90;;;;;;4917999;29;19970;-87
2021/12/27 12:29:25;;;;;;;;;;;3.00;99.90;;;;;;4909102;29;20300;-80
2021/12/27 12:31:58;;;;;;;;;;;2.90;99.90;;;;;;4914131;29;19938;-85
2021/12/27 12:34:30;;;;;;;;;;;2.90;99.90;;;;;;4891866;29;19923;-82
2021/12/27 12:37:00;;;;;;;;;;;3.00;99.90;;;;;;4900685;29;19923;-78
2021/12/27 12:39:34;;;;;;;;;;;3.00;99.90;;;;;;4910858;29;19975;-83
2021/12/27 12:42:05;;;;;;;;;;;3.00;99.90;;;;;;4895687;29;19954;-79
2021/12/27 12:44:31;;;;;;;;;;;3.00;99.90;;;;;;4895363;29;19937;-79
2021/12/27 12:46:59;;;;;;;;;;;3.00;99.90;;;;;;4888030;29;19924;-76
2021/12/27 12:49:28;;;;;;;;;;;3.00;99.90;;;;;;4903428;29;19931;-79
2021/12/27 12:51:55;;;;;;;;;;;3.90;99.90;;;;;;4889243;29;19923;-77
2021/12/27 12:54:24;;;;;;;;;;;3.00;99.90;;;;;;4911641;29;19985;-77
2021/12/27 12:56:57;;;;;;;;;;;3.10;99.90;;;;;;4894311;29;20062;-80
2021/12/27 12:59:26;;;;;;;;;;;3.00;99.90;;;;;;4902234;29;19957;-80
2021/12/27 13:01:57;;;;;;;;;;;3.50;99.90;;;;;;4896613;29;19923;-79
2021/12/27 13:04:22;;;;;;;;;;;3.00;99.90;;;;;;4898453;29;20399;-79
2021/12/27 13:06:48;;;;;;;;;;;3.00;99.90;;;;;;4897090;29;19927;-77
2021/12/27 13:09:13;;;;;;;;;;;3.00;99.90;;;;;;4891066;29;20394;-74
2021/12/27 13:11:39;;;;;;;;;;;3.10;99.90;;;;;;4896643;29;19931;-76
2021/12/27 13:14:05;;;;;;;;;;;3.10;99.90;;;;;;4890778;29;19966;-75
2021/12/27 13:16:31;;;;;;;;;;;4.00;99.90;;;;;;4916859;29;20025;-75
2021/12/27 13:23:51;;;;;;;;;;;3.20;99.90;;;;;;4923595;29;19946;-78
2021/12/27 13:26:17;;;;;;;;;;;3.10;99.90;;;;;;4929992;29;19927;-78
2021/12/27 13:28:44;;;;;;;;;;;3.20;99.90;;;;;;4931834;29;19950;-80
2021/12/27 13:31:23;;;;;;;;;;;3.20;99.90;;;;;;4905651;29;19923;-74
2021/12/27 13:33:53;;;;;;;;;;;3.20;99.90;;;;;;4911767;29;20012;-77
2021/12/27 13:36:26;;;;;;;;;;;3.20;99.90;;;;;;4911670;29;19978;-78
2021/12/27 13:39:08;;;;;;;;;;;3.20;99.90;;;;;;4929495;29;19954;-77
2021/12/27 13:41:35;;;;;;;;;;;3.20;99.90;;;;;;4932033;29;20018;-79
2021/12/27 13:44:03;;;;;;;;;;;3.10;99.90;;;;;;4933113;29;19947;-85
2021/12/27 13:46:31;;;;;;;;;;;3.10;99.90;;;;;;4927861;29;19926;-82
2021/12/27 13:48:58;;;;;;;;;;;3.20;99.90;;;;;;4908675;29;19929;-81
2021/12/27 13:51:40;;;;;;;;;;;3.20;99.90;;;;;;4908362;29;19931;-83
2021/12/27 13:54:05;;;;;;;;;;;3.20;99.90;;;;;;4904349;29;19927;-81
2021/12/27 13:56:32;;;;;;;;;;;3.30;99.90;;;;;;4905192;29;19937;-77
2021/12/27 13:59:05;;;;;;;;;;;3.80;99.90;;;;;;4908629;29;19970;-81
2021/12/27 14:01:31;;;;;;;;;;;3.30;99.90;;;;;;4931918;29;20001;-80
2021/12/27 14:04:12;;;;;;;;;;;3.40;99.90;;;;;;4909864;29;20059;-80
2021/12/27 14:06:41;;;;;;;;;;;3.30;99.90;;;;;;4912312;29;19927;-82
2021/12/27 14:09:11;;;;;;;;;;;3.30;99.90;;;;;;4912118;29;20029;-80
2021/12/27 14:11:48;;;;;;;;;;;3.30;99.90;;;;;;4911536;29;19971;-81
2021/12/27 14:14:14;;;;;;;;;;;3.30;99.90;;;;;;4910868;29;19962;-83
2021/12/27 14:16:40;;;;;;;;;;;3.30;99.90;;;;;;4936127;29;19922;-81
2021/12/27 14:19:12;;;;;;;;;;;3.40;99.90;;;;;;4915506;29;19923;-81
2021/12/27 14:21:53;;;;;;;;;;;3.30;99.90;;;;;;4931185;29;19923;-80
2021/12/27 14:24:27;;;;;;;;;;;3.40;99.90;;;;;;4913521;29;19922;-78
2021/12/27 14:26:52;;;;;;;;;;;3.60;99.90;;;;;;4908857;29;19923;-79
2021/12/27 14:29:19;;;;;;;;;;;3.40;99.90;;;;;;4903484;29;19923;-81
2021/12/27 14:31:48;;;;;;;;;;;3.40;99.90;;;;;;4923382;29;20009;-80
2021/12/27 14:34:35;;;;;;;;;;;3.30;99.90;;;;;;4908817;29;19923;-76
2021/12/27 14:39:34;;;;;;;;;;;3.40;99.90;;;;;;4888022;23;19923;-87
2021/12/27 14:41:59;;;;;;;;;;;3.30;99.90;;;;;;4879713;29;19988;-83
2021/12/27 14:44:25;;;;;;;;;;;3.40;99.90;;;;;;4878347;29;20442;-82
2021/12/27 14:46:52;;;;;;;;;;;3.40;99.90;;;;;;4882980;29;19930;-81
2021/12/27 14:49:17;;;;;;;;;;;3.30;99.90;;;;;;4898130;29;19927;-82